Terminal Aerodrome Forecast
Issued by NWS Los Angeles, CA

Home | Current Version | Previous Version | Text Only | Print | Product List | Glossary On
Versions: 1 2 3 4 5 6 7 8 9 10 11 12 13 14 15 16 17 18 19 20
912
FTUS46 KLOX 290701 AAA
TAFSMX
TAF AMD
KSMX 290701Z 2907/3006 VRB03KT 1/4SM FG VV001
     FM291600 VRB03KT 1 1/2SM BR OVC002
     FM291800 33006KT P6SM SKC
     FM292100 31012KT P6SM SKC
     FM300300 VRB03KT 3SM BR BKN005=

USA.gov is the U.S. government's official web portal to all federal, state and local government web resources and services.